createdAt,value
2023-02-22T00:00:42.750Z,100014.50
2023-02-22T00:03:12.605Z,100013.56
2023-02-22T00:05:45.090Z,100013.31
2023-02-22T00:08:11.559Z,100014.00
2023-02-22T00:10:38.476Z,100016.66
2023-02-22T00:13:07.332Z,100018.63
2023-02-22T00:15:34.338Z,100015.38
2023-02-22T00:18:01.396Z,100018.97
2023-02-22T00:20:28.602Z,100024.97
2023-02-22T00:22:55.466Z,100014.00
2023-02-22T00:25:25.667Z,100017.13
2023-02-22T00:27:52.983Z,100014.56
2023-02-22T00:30:26.948Z,100019.44
2023-02-22T00:32:55.857Z,100012.19
2023-02-22T00:35:25.046Z,100012.06
2023-02-22T00:37:54.336Z,100008.34
2023-02-22T00:40:30.575Z,100006.41
2023-02-22T00:42:58.598Z,100006.97
2023-02-22T00:45:27.329Z,100007.09
2023-02-22T00:47:57.597Z,100009.59
2023-02-22T00:50:26.776Z,100013.19
2023-02-22T00:52:54.118Z,100006.66
2023-02-22T00:55:24.315Z,100016.69
2023-02-22T00:57:51.366Z,100011.13
2023-02-22T01:00:21.208Z,100008.69
2023-02-22T01:02:51.119Z,100007.41
2023-02-22T01:05:21.159Z,100006.13
2023-02-22T01:07:49.639Z,100010.25
2023-02-22T01:10:19.424Z,100007.31
2023-02-22T01:12:47.816Z,100007.31
2023-02-22T01:15:16.271Z,100008.28
2023-02-22T01:17:43.813Z,100007.41
2023-02-22T01:20:14.261Z,100008.84
2023-02-22T01:22:42.183Z,100014.84
2023-02-22T01:25:11.260Z,100013.69
2023-02-22T01:27:38.519Z,100004.06
2023-02-22T01:30:09.087Z,100004.31
2023-02-22T01:32:36.342Z,100001.56
2023-02-22T01:35:05.016Z,100004.47
2023-02-22T01:37:32.377Z,99996.94
2023-02-22T01:39:58.977Z,100006.25
2023-02-22T01:42:26.438Z,100003.66
2023-02-22T01:45:30.177Z,99994.47
2023-02-22T01:48:09.461Z,99995.13
2023-02-22T01:50:44.339Z,99992.50
2023-02-22T01:53:14.165Z,99989.84
2023-02-22T01:55:40.857Z,99996.34
2023-02-22T01:58:08.799Z,99996.34
2023-02-22T02:00:35.443Z,99997.63
2023-02-22T02:03:08.675Z,99991.25
2023-02-22T02:05:35.907Z,99989.31
2023-02-22T02:08:14.504Z,99992.97
2023-02-22T02:10:41.919Z,99986.41
2023-02-22T02:13:10.098Z,99989.91
2023-02-22T02:15:37.165Z,99987.81
2023-02-22T02:18:07.656Z,99991.25
2023-02-22T02:21:04.725Z,99990.38
2023-02-22T02:23:56.280Z,99995.44
2023-02-22T02:26:53.700Z,99990.03
2023-02-22T02:29:55.452Z,99986.09
2023-02-22T02:32:35.718Z,99977.28
2023-02-22T02:35:07.601Z,99976.00
2023-02-22T02:38:06.229Z,99966.06
2023-02-22T02:40:58.621Z,99969.09
2023-02-22T02:43:35.277Z,99968.28
2023-02-22T02:46:06.264Z,99967.25
2023-02-22T02:48:35.453Z,99965.16
2023-02-22T02:51:05.669Z,99958.44
2023-02-22T02:53:35.210Z,99969.34
2023-02-22T02:56:02.370Z,99968.88
2023-02-22T02:58:29.616Z,99960.06
2023-02-22T03:01:00.201Z,99966.56
2023-02-22T03:04:12.089Z,99963.19
2023-02-22T03:06:53.614Z,99963.19
2023-02-22T03:09:27.620Z,99967.00
2023-02-22T03:12:15.160Z,99960.84
2023-02-22T03:15:14.116Z,99957.25
2023-02-22T03:17:59.938Z,99958.16
2023-02-22T03:20:35.929Z,99956.44
2023-02-22T03:23:12.093Z,99958.16
2023-02-22T03:25:43.731Z,99955.38
2023-02-22T03:28:11.894Z,99957.13
2023-02-22T03:30:42.816Z,99952.53
2023-02-22T03:33:28.018Z,99948.34
2023-02-22T03:35:57.111Z,99947.31
2023-02-22T03:38:26.925Z,99949.53
2023-02-22T03:40:54.576Z,99944.06
2023-02-22T03:43:28.064Z,99942.22
2023-02-22T03:45:54.908Z,99941.97
2023-02-22T03:48:36.854Z,99943.31
2023-02-22T03:51:04.536Z,99938.38
2023-02-22T03:53:32.943Z,99941.63
2023-02-22T03:56:00.348Z,99932.81
2023-02-22T03:58:30.955Z,99937.44
2023-02-22T04:00:57.604Z,99939.78
2023-02-22T04:03:24.060Z,99941.44
2023-02-22T04:05:50.699Z,99937.13
2023-02-22T04:08:17.360Z,99936.22
2023-02-22T04:10:43.886Z,99935.00
2023-02-22T04:13:10.715Z,99932.56
2023-02-22T04:15:37.365Z,99938.31
2023-02-22T04:18:04.093Z,99937.22
2023-02-22T04:20:31.693Z,99936.72
2023-02-22T04:22:58.178Z,99938.22
2023-02-22T04:25:24.718Z,99934.78
2023-02-22T04:27:51.208Z,99932.97
2023-02-22T04:30:19.236Z,99935.88
2023-02-22T04:32:46.163Z,99937.50
2023-02-22T04:35:12.732Z,99935.19
2023-02-22T04:37:39.254Z,99932.25
2023-02-22T04:40:09.124Z,99933.69
2023-02-22T04:42:36.137Z,99932.69
2023-02-22T04:45:04.090Z,99929.78
2023-02-22T04:47:30.616Z,99935.13
2023-02-22T04:49:57.210Z,99930.34
2023-02-22T04:52:23.750Z,99927.03
2023-02-22T04:54:50.836Z,99928.78
2023-02-22T04:57:17.253Z,99936.25
2023-02-22T04:59:44.308Z,99936.84
2023-02-22T05:02:10.857Z,99934.75
2023-02-22T05:04:40.546Z,99934.41
2023-02-22T05:07:07.056Z,99931.66
2023-02-22T05:09:34.200Z,99938.34
2023-02-22T05:12:00.678Z,99931.50
2023-02-22T05:14:27.606Z,99932.47
2023-02-22T05:16:56.092Z,99939.78
2023-02-22T05:19:22.683Z,99935.66
2023-02-22T05:21:49.290Z,99936.81
2023-02-22T05:24:16.057Z,99930.59
2023-02-22T05:26:46.235Z,99932.00
2023-02-22T05:29:13.224Z,99936.41
2023-02-22T05:31:41.774Z,99933.78
2023-02-22T05:34:08.327Z,99933.78
2023-02-22T05:36:34.857Z,99929.72
2023-02-22T05:39:01.732Z,99929.44
2023-02-22T05:41:28.408Z,99932.47
2023-02-22T05:43:54.885Z,99930.72
2023-02-22T05:46:21.534Z,99929.25
2023-02-22T05:48:48.056Z,99936.41
2023-02-22T05:51:14.640Z,99930.53
2023-02-22T05:53:42.547Z,99928.69
2023-02-22T05:56:09.030Z,99935.72
2023-02-22T05:58:35.922Z,99934.91
2023-02-22T06:01:03.420Z,99939.66
2023-02-22T06:03:30.012Z,99937.22
2023-02-22T06:05:56.447Z,99934.09
2023-02-22T06:08:22.942Z,99940.34
2023-02-22T06:10:49.425Z,99940.47
2023-02-22T06:13:15.952Z,99936.88
2023-02-22T06:15:42.379Z,99938.31
2023-02-22T06:18:08.849Z,99944.47
2023-02-22T06:20:35.566Z,99939.06
2023-02-22T06:23:02.029Z,99944.41
2023-02-22T06:25:32.973Z,99943.13
2023-02-22T06:28:00.768Z,99947.66
2023-02-22T06:30:28.136Z,99947.66
2023-02-22T06:32:54.655Z,99947.53
2023-02-22T06:35:21.765Z,99944.88
2023-02-22T06:37:48.352Z,99951.59
2023-02-22T06:40:15.782Z,99948.13
2023-02-22T06:42:42.345Z,99955.31
2023-02-22T06:45:09.530Z,99953.50
2023-02-22T06:47:40.954Z,99958.72
2023-02-22T06:50:10.293Z,99955.59
2023-02-22T06:52:42.528Z,99960.03
2023-02-22T06:55:08.966Z,99955.50
2023-02-22T06:57:35.478Z,99955.38
2023-02-22T07:00:02.047Z,99958.06
2023-02-22T07:02:28.579Z,99959.44
2023-02-22T07:04:54.996Z,99967.69
2023-02-22T07:07:23.424Z,99965.50
2023-02-22T07:09:49.842Z,99970.94
2023-02-22T07:12:16.316Z,99967.00
2023-02-22T07:14:42.906Z,99968.63
2023-02-22T07:17:09.434Z,99962.63
2023-02-22T07:19:35.975Z,99973.66
2023-02-22T07:22:02.452Z,99973.38
2023-02-22T07:24:28.905Z,99974.13
2023-02-22T07:26:55.674Z,99968.91
2023-02-22T07:29:25.353Z,99974.31
2023-02-22T07:31:51.918Z,99983.13
2023-02-22T07:34:18.572Z,99973.97
2023-02-22T07:36:45.252Z,99976.66
2023-02-22T07:39:11.733Z,99983.25
2023-02-22T07:41:38.297Z,99985.84
2023-02-22T07:44:05.018Z,99984.00
2023-02-22T07:46:32.026Z,99984.47
2023-02-22T07:48:58.554Z,99985.03
2023-02-22T07:51:25.203Z,99975.31
2023-02-22T07:53:51.754Z,99983.53
2023-02-22T07:56:18.271Z,99969.63
2023-02-22T07:58:45.337Z,99977.97
2023-02-22T08:01:11.874Z,99976.22
2023-02-22T08:03:38.585Z,99971.38
2023-02-22T08:06:07.022Z,99971.13
2023-02-22T08:08:34.438Z,99972.75
2023-02-22T08:11:01.013Z,99970.53
2023-02-22T08:13:28.200Z,99966.81
2023-02-22T08:15:55.072Z,99965.81
2023-02-22T08:18:23.041Z,99968.00
2023-02-22T08:20:52.035Z,99968.81
2023-02-22T08:23:20.219Z,99963.81
2023-02-22T08:25:46.756Z,99971.44
2023-02-22T08:28:15.907Z,99966.91
2023-02-22T08:30:43.794Z,99962.72
2023-02-22T08:33:14.308Z,99965.97
2023-02-22T08:35:41.388Z,99972.91
2023-02-22T08:38:14.735Z,99977.41
2023-02-22T08:40:41.208Z,99964.34
2023-02-22T08:43:07.659Z,99964.66
2023-02-22T08:45:34.151Z,99964.66
2023-02-22T08:48:00.660Z,99967.50
2023-02-22T08:50:29.779Z,99962.94
2023-02-22T08:53:01.480Z,99966.44
2023-02-22T08:55:32.072Z,99971.38
2023-02-22T08:58:01.207Z,99969.66
2023-02-22T09:00:29.535Z,99963.91
2023-02-22T09:02:56.126Z,99963.44
2023-02-22T09:05:22.630Z,99964.38
2023-02-22T09:07:49.187Z,99956.13
2023-02-22T09:10:19.971Z,99960.53
2023-02-22T09:12:46.442Z,99961.44
2023-02-22T09:15:12.928Z,99958.84
2023-02-22T09:17:39.675Z,99950.56
2023-02-22T09:20:07.587Z,99956.84
2023-02-22T09:22:34.418Z,99962.69
2023-02-22T09:25:11.223Z,99958.47
2023-02-22T09:27:43.500Z,99953.78
2023-02-22T09:30:31.940Z,99959.59
2023-02-22T09:33:05.487Z,99957.28
2023-02-22T09:35:35.990Z,99955.69
2023-02-22T09:38:04.489Z,99955.47
2023-02-22T09:40:33.076Z,99950.03
2023-02-22T09:43:37.898Z,99950.47
2023-02-22T09:46:20.213Z,99942.59
2023-02-22T09:49:05.186Z,99943.88
2023-02-22T09:51:41.207Z,99937.91
2023-02-22T09:54:17.547Z,99940.91
2023-02-22T09:56:46.865Z,99936.72
2023-02-22T09:59:18.743Z,99926.78
2023-02-22T10:01:48.855Z,99930.22
2023-02-22T10:04:34.451Z,99928.72
2023-02-22T10:07:05.898Z,99925.97
2023-02-22T10:09:37.622Z,99926.94
2023-02-22T10:12:25.527Z,99924.34
2023-02-22T10:15:08.153Z,99914.44
2023-02-22T10:17:47.549Z,99918.50
2023-02-22T10:20:31.994Z,99914.78
2023-02-22T10:23:14.144Z,99915.34
2023-02-22T10:25:42.210Z,99915.78
2023-02-22T10:28:25.067Z,99913.41
2023-02-22T10:30:56.673Z,99916.75
2023-02-22T10:33:51.168Z,99913.16
2023-02-22T10:36:22.859Z,99914.97
2023-02-22T10:38:55.513Z,99913.06
2023-02-22T10:41:33.446Z,99915.03
2023-02-22T10:44:01.773Z,99909.56
2023-02-22T10:46:30.702Z,99912.06
2023-02-22T10:49:02.747Z,99904.81
2023-02-22T10:51:29.337Z,99905.84
2023-02-22T10:54:27.076Z,99898.75
2023-02-22T10:56:55.742Z,99903.09
2023-02-22T10:59:32.744Z,99903.38
2023-02-22T11:02:00.910Z,99903.03
2023-02-22T11:04:27.866Z,99903.88
2023-02-22T11:07:21.926Z,99900.19
2023-02-22T11:09:54.544Z,99891.34
2023-02-22T11:12:28.701Z,99885.34
2023-02-22T11:14:56.174Z,99884.19
2023-02-22T11:17:30.270Z,99885.69
2023-02-22T11:19:57.485Z,99875.38
2023-02-22T11:22:37.827Z,99875.19
2023-02-22T11:25:07.483Z,99877.94
2023-02-22T11:27:43.909Z,99883.38
2023-02-22T11:30:22.145Z,99881.16
2023-02-22T11:33:00.949Z,99874.81
2023-02-22T11:35:58.241Z,99872.41
2023-02-22T11:38:28.695Z,99855.81
2023-02-22T11:41:15.169Z,99853.97
2023-02-22T11:43:47.424Z,99851.75
2023-02-22T11:46:18.307Z,99853.25
2023-02-22T11:48:59.726Z,99853.94
2023-02-22T11:51:39.125Z,99852.69
2023-02-22T11:54:19.336Z,99855.59
2023-02-22T11:56:48.799Z,99849.13
2023-02-22T11:59:38.792Z,99842.59
2023-02-22T12:02:21.667Z,99845.41
2023-02-22T12:05:12.264Z,99845.03
2023-02-22T12:07:48.594Z,99846.84
2023-02-22T12:10:29.356Z,99846.84
2023-02-22T12:13:20.737Z,99836.50
2023-02-22T12:16:11.801Z,99835.78
2023-02-22T12:19:16.261Z,99843.19
2023-02-22T12:21:45.156Z,99829.78
2023-02-22T12:24:16.384Z,99835.28
2023-02-22T12:26:53.775Z,99835.69
2023-02-22T12:29:27.013Z,99823.84
2023-02-22T12:32:05.761Z,99829.97
2023-02-22T12:34:43.222Z,99829.56
2023-02-22T12:37:29.316Z,99827.81
2023-02-22T12:40:17.031Z,99828.22
2023-02-22T12:42:43.443Z,99820.78
2023-02-22T12:45:20.607Z,99824.22
2023-02-22T12:47:55.744Z,99827.16
2023-02-22T12:50:26.314Z,99822.72
2023-02-22T12:53:13.398Z,99814.25
2023-02-22T12:55:47.979Z,99819.03
2023-02-22T12:58:23.086Z,99817.72
2023-02-22T13:01:02.012Z,99816.44
2023-02-22T13:03:40.063Z,99816.34
2023-02-22T13:06:36.675Z,99804.84
2023-02-22T13:09:26.583Z,99818.78
2023-02-22T13:12:20.388Z,99816.38
2023-02-22T13:15:04.920Z,99826.03
2023-02-22T13:17:49.991Z,99812.28
2023-02-22T13:20:26.771Z,99812.34
2023-02-22T13:23:08.695Z,99806.00
2023-02-22T13:25:57.958Z,99811.66
2023-02-22T13:28:33.672Z,99805.53
2023-02-22T13:31:36.798Z,99800.59
2023-02-22T13:34:13.841Z,99806.91
2023-02-22T13:36:58.133Z,99803.22
2023-02-22T13:39:54.629Z,99796.66
2023-02-22T13:42:36.447Z,99794.50
2023-02-22T13:45:21.342Z,99801.81
2023-02-22T13:48:06.032Z,99804.88
2023-02-22T13:50:39.381Z,99798.88
2023-02-22T13:53:12.635Z,99801.31
2023-02-22T13:55:41.453Z,99805.28
2023-02-22T13:58:10.717Z,99803.94
2023-02-22T14:00:42.176Z,99799.09
2023-02-22T14:03:14.812Z,99795.13
2023-02-22T14:05:41.599Z,99798.56
2023-02-22T14:08:28.878Z,99799.84
2023-02-22T14:11:02.209Z,99807.38
2023-02-22T14:13:31.101Z,99806.19
2023-02-22T14:16:00.713Z,99800.56
2023-02-22T14:18:43.112Z,99795.88
2023-02-22T14:21:14.369Z,99789.53
2023-02-22T14:23:41.732Z,99790.25
2023-02-22T14:26:13.918Z,99783.19
2023-02-22T14:28:54.333Z,99781.34
2023-02-22T14:31:37.288Z,99779.00
2023-02-22T14:34:07.384Z,99783.84
2023-02-22T14:36:56.221Z,99779.44
2023-02-22T14:39:33.146Z,99774.88
2023-02-22T14:42:17.084Z,99778.88
2023-02-22T14:44:53.473Z,99776.22
2023-02-22T14:47:28.220Z,99773.53
2023-02-22T14:50:02.238Z,99765.31
2023-02-22T14:52:30.968Z,99776.88
2023-02-22T14:55:16.081Z,99770.47
2023-02-22T14:57:59.152Z,99770.09
2023-02-22T15:00:32.705Z,99766.56
2023-02-22T15:03:00.622Z,99766.81
2023-02-22T15:05:30.989Z,99758.13
2023-02-22T15:08:00.653Z,99758.63
2023-02-22T15:10:48.271Z,99767.38
2023-02-22T15:13:14.709Z,99756.69
2023-02-22T15:15:49.181Z,99760.97
2023-02-22T15:18:23.520Z,99764.06
2023-02-22T15:20:56.057Z,99768.47
2023-02-22T15:23:26.225Z,99762.09
2023-02-22T15:25:52.776Z,99762.63
2023-02-22T15:28:19.535Z,99755.47
2023-02-22T15:30:46.193Z,99759.69
2023-02-22T15:33:24.198Z,99752.06
2023-02-22T15:35:57.711Z,99747.91
2023-02-22T15:38:29.309Z,99750.53
2023-02-22T15:41:02.614Z,99753.75
2023-02-22T15:43:29.947Z,99745.31
2023-02-22T15:45:58.543Z,99750.44
2023-02-22T15:48:28.677Z,99749.41
2023-02-22T15:51:09.184Z,99745.81
2023-02-22T15:53:44.352Z,99744.88
2023-02-22T15:56:15.039Z,99742.38
2023-02-22T15:58:42.350Z,99749.94
2023-02-22T16:01:12.422Z,99741.13
2023-02-22T16:03:47.255Z,99746.13
2023-02-22T16:06:36.419Z,99745.44
2023-02-22T16:09:18.182Z,99738.69
2023-02-22T16:11:46.238Z,99747.22
2023-02-22T16:14:27.264Z,99744.63
2023-02-22T16:17:15.642Z,99745.75
2023-02-22T16:19:44.953Z,99743.59
2023-02-22T16:22:41.211Z,99739.91
2023-02-22T16:25:21.501Z,99741.81
2023-02-22T16:27:49.105Z,99741.75
2023-02-22T16:30:24.962Z,99740.56
2023-02-22T16:32:54.085Z,99742.25
2023-02-22T16:35:20.631Z,99742.28
2023-02-22T16:37:50.006Z,99743.72
2023-02-22T16:40:27.496Z,99742.34
2023-02-22T16:42:54.264Z,99743.06
2023-02-22T16:45:21.723Z,99741.22
2023-02-22T16:47:51.607Z,99742.03
2023-02-22T16:50:18.105Z,99748.66
2023-02-22T16:52:44.598Z,99748.91
2023-02-22T16:55:13.391Z,99752.16
2023-02-22T16:57:42.251Z,99743.59
2023-02-22T17:00:16.612Z,99746.13
2023-02-22T17:02:44.926Z,99744.06
2023-02-22T17:05:15.715Z,99742.34
2023-02-22T17:07:42.505Z,99736.69
2023-02-22T17:10:15.828Z,99739.81
2023-02-22T17:12:45.158Z,99743.63
2023-02-22T17:15:24.693Z,99738.06
2023-02-22T17:17:52.411Z,99737.50
2023-02-22T17:20:29.882Z,99731.84
2023-02-22T17:22:58.133Z,99732.19
2023-02-22T17:25:46.686Z,99742.03
2023-02-22T17:28:13.209Z,99742.75
2023-02-22T17:30:39.912Z,99744.13
2023-02-22T17:33:07.929Z,99746.31
2023-02-22T17:35:37.247Z,99735.47
2023-02-22T17:38:08.153Z,99741.00
2023-02-22T17:40:36.330Z,99744.00
2023-02-22T17:43:03.513Z,99739.63
2023-02-22T17:45:30.208Z,99743.91
2023-02-22T17:47:59.005Z,99749.81
2023-02-22T17:50:27.146Z,99733.84
2023-02-22T17:52:54.167Z,99738.94
2023-02-22T17:55:21.366Z,99734.75
2023-02-22T17:57:58.269Z,99740.75
2023-02-22T18:00:33.596Z,99740.66
2023-02-22T18:03:03.059Z,99741.38
2023-02-22T18:05:30.452Z,99731.84
2023-02-22T18:07:56.916Z,99734.16
2023-02-22T18:10:23.429Z,99734.53
2023-02-22T18:12:50.176Z,99732.66
2023-02-22T18:15:19.462Z,99732.44
2023-02-22T18:17:46.744Z,99726.66
2023-02-22T18:20:14.555Z,99724.69
2023-02-22T18:22:43.340Z,99724.56
2023-02-22T18:25:14.742Z,99718.66
2023-02-22T18:27:43.290Z,99722.38
2023-02-22T18:30:12.024Z,99728.50
2023-02-22T18:32:39.246Z,99720.28
2023-02-22T18:35:06.549Z,99724.47
2023-02-22T18:37:33.570Z,99716.59
2023-02-22T18:40:01.422Z,99718.78
2023-02-22T18:42:28.367Z,99712.66
2023-02-22T18:45:00.594Z,99722.50
2023-02-22T18:47:27.518Z,99719.03
2023-02-22T18:49:54.195Z,99714.28
2023-02-22T18:52:21.056Z,99720.75
2023-02-22T18:54:48.824Z,99713.13
2023-02-22T18:57:16.144Z,99715.31
2023-02-22T18:59:43.320Z,99709.88
2023-02-22T19:02:13.974Z,99703.63
2023-02-22T19:04:40.869Z,99703.41
2023-02-22T19:07:07.325Z,99703.41
2023-02-22T19:09:33.816Z,99703.75
2023-02-22T19:12:00.263Z,99697.41
2023-02-22T19:14:26.854Z,99696.44
2023-02-22T19:16:56.504Z,99701.06
2023-02-22T19:19:26.110Z,99703.16
2023-02-22T19:21:56.277Z,99703.50
2023-02-22T19:24:23.102Z,99699.75
2023-02-22T19:26:57.185Z,99697.91
2023-02-22T19:29:23.844Z,99694.31
2023-02-22T19:31:51.617Z,99695.53
2023-02-22T19:34:21.826Z,99691.44
2023-02-22T19:36:48.865Z,99694.78
2023-02-22T19:39:18.897Z,99695.72
2023-02-22T19:41:46.759Z,99691.09
2023-02-22T19:44:13.542Z,99690.84
2023-02-22T19:46:40.270Z,99693.81
2023-02-22T19:49:07.621Z,99687.16
2023-02-22T19:51:34.450Z,99689.63
2023-02-22T19:54:06.229Z,99686.25
2023-02-22T19:56:35.208Z,99687.94
2023-02-22T19:59:09.471Z,99688.63
2023-02-22T20:01:36.805Z,99690.84
2023-02-22T20:04:06.348Z,99690.34
2023-02-22T20:06:41.949Z,99694.94
2023-02-22T20:09:11.468Z,99685.50
2023-02-22T20:11:38.277Z,99683.34
2023-02-22T20:14:08.125Z,99682.94
2023-02-22T20:16:35.223Z,99694.41
2023-02-22T20:19:01.827Z,99688.38
2023-02-22T20:21:33.175Z,99692.50
2023-02-22T20:24:06.732Z,99684.13
2023-02-22T20:26:35.316Z,99681.69
2023-02-22T20:29:04.015Z,99683.00
2023-02-22T20:31:31.589Z,99690.00
2023-02-22T20:34:00.091Z,99691.47
2023-02-22T20:36:28.261Z,99682.28
2023-02-22T20:38:57.620Z,99687.94
2023-02-22T20:41:28.848Z,99684.19
2023-02-22T20:43:56.254Z,99683.50
2023-02-22T20:46:24.006Z,99686.47
2023-02-22T20:48:55.337Z,99672.81
2023-02-22T20:51:21.911Z,99673.69
2023-02-22T20:53:48.894Z,99667.06
2023-02-22T20:56:18.003Z,99673.09
2023-02-22T20:58:44.581Z,99670.00
2023-02-22T21:01:12.686Z,99672.44
2023-02-22T21:03:40.734Z,99666.09
2023-02-22T21:06:07.744Z,99672.63
2023-02-22T21:08:34.175Z,99669.38
2023-02-22T21:11:01.056Z,99666.28
2023-02-22T21:13:27.632Z,99673.25
2023-02-22T21:15:54.168Z,99670.19
2023-02-22T21:18:22.516Z,99666.94
2023-02-22T21:20:49.832Z,99666.66
2023-02-22T21:23:16.419Z,99672.19
2023-02-22T21:25:53.086Z,99669.59
2023-02-22T21:28:19.994Z,99661.13
2023-02-22T21:30:47.356Z,99659.50
2023-02-22T21:33:17.240Z,99663.41
2023-02-22T21:35:46.925Z,99658.06
2023-02-22T21:38:14.499Z,99656.44
2023-02-22T21:40:41.736Z,99660.66
2023-02-22T21:43:10.588Z,99655.94
2023-02-22T21:45:37.704Z,99646.66
2023-02-22T21:48:04.891Z,99649.09
2023-02-22T21:50:31.862Z,99649.59
2023-02-22T21:52:59.052Z,99647.63
2023-02-22T21:55:26.457Z,99647.16
2023-02-22T21:57:52.997Z,99643.44
2023-02-22T22:00:29.312Z,99646.34
2023-02-22T22:03:14.636Z,99644.88
2023-02-22T22:05:45.164Z,99651.06
2023-02-22T22:08:19.562Z,99649.44
2023-02-22T22:10:51.233Z,99643.59
2023-02-22T22:13:17.812Z,99646.19
2023-02-22T22:15:44.250Z,99642.75
2023-02-22T22:18:11.661Z,99635.94
2023-02-22T22:20:38.904Z,99639.53
2023-02-22T22:23:06.836Z,99638.72
2023-02-22T22:25:38.038Z,99640.84
2023-02-22T22:28:07.529Z,99630.75
2023-02-22T22:30:38.010Z,99639.41
2023-02-22T22:33:05.627Z,99639.06
2023-02-22T22:35:33.486Z,99634.84
2023-02-22T22:38:00.944Z,99633.06
2023-02-22T22:40:28.013Z,99641.16
2023-02-22T22:42:54.503Z,99643.78
2023-02-22T22:45:21.093Z,99639.25
2023-02-22T22:47:48.264Z,99647.56
2023-02-22T22:50:18.734Z,99645.28
2023-02-22T22:52:46.063Z,99644.81
2023-02-22T22:55:12.562Z,99639.59
2023-02-22T22:57:39.912Z,99646.09
2023-02-22T23:00:30.308Z,99650.66
2023-02-22T23:02:57.259Z,99650.97
2023-02-22T23:05:28.246Z,99655.06
2023-02-22T23:07:56.320Z,99641.09
2023-02-22T23:10:27.088Z,99649.69
2023-02-22T23:12:56.156Z,99649.69
2023-02-22T23:15:24.625Z,99647.59
2023-02-22T23:17:56.009Z,99655.69
2023-02-22T23:20:26.158Z,99648.72
2023-02-22T23:22:54.187Z,99647.91
2023-02-22T23:25:21.587Z,99645.50
2023-02-22T23:27:49.385Z,99656.53
2023-02-22T23:30:18.635Z,99651.00
2023-02-22T23:32:46.644Z,99651.81
2023-02-22T23:35:14.930Z,99652.63
2023-02-22T23:37:42.345Z,99648.25
2023-02-22T23:40:17.333Z,99655.69
2023-02-22T23:42:54.623Z,99648.88
2023-02-22T23:45:24.610Z,99652.59
2023-02-22T23:47:56.406Z,99651.31
2023-02-22T23:50:28.986Z,99649.69
2023-02-22T23:52:58.063Z,99648.88
2023-02-22T23:55:31.395Z,99643.84
2023-02-22T23:57:59.442Z,99641.91
